Cannon AFB, New Mexico
Current Conditions -  °F | °C
As of 6:58 PM on Friday 28 Nov 2014 (Local Time) from KCVS Reporting Station
Clear Clear  
Wind Chill: 54°   Ceiling: Unl
Heat Index: 54°   Visibility: 10mi
Dew Point: 18°   Wind: 8mph
Humidity: 25%   Direction: 260°W
Pressure: 29.99"   Gusts: NA
Location:  34.38°N, 103.31°W
Report Text: KCVS 290158Z AUTO 26007KT 10SM CLR 12/M08 A2999 RMK AO2 SLP137 T01201078 $
Loading
Personal Weather Stations






























Interactive Weather Map New forecast layout! Learn more

10-Day Weather Forecast

Advertisements
Track Severe Weather on mobile